Skip Navigation Links Skip Navigation Links

Current Weather

Watsonville Muni, Watsonville, Calif.

For information only: do not use for flight planning or navigation.
Latest weather
Observation time Thursday, December 3, 2020 10:53 PM PST
Local time Thursday, December 3, 2020 11:28 PM PST
Flight conditions Visual Meteorological Conditions
Winds
Wind direction North-Northwest (340°)
Wind speed 5 mph
Visibility 10 mi.
Sky condition
Ceiling unlimited
Sky clear
Temperature 45°F
Dewpoint 40°F
Altimeter 30.32 in.Hg
Derived measurements
Relative humidity 82%
Wind chill 43°F
Density altitude -1112 ft.
Sea-level pressure 30.32 in.Hg
Remarks
Fully automated report.
Automated weather observing station with precipitation discriminator.
METAR KWVI 040653Z AUTO 34004KT 10SM CLR 07/04 A3032 RMK AO2 SLP266 T00720044

Settings

Location code

InnerDrive.Weather 4.0.6770.0 Release CLR 4.0.30319.42000
Copyright ©2018 Inner Drive Technology. All rights reserved. Portions Copyright ©1986-2018 David Braverman.

Find weather

Site navigation


Skip Navigation Links

Place info

Page info

PayPal - The safer, easier way to pay online!

Return home.

Copyright ©2020 Inner Drive Technology. Purveyors of fine, hand-crafted computer software. Page printed 2020-12-04T07:28:13 UTC.